createdAt,value
2022-09-15T00:01:13.300Z,2.28
2022-09-15T00:06:19.458Z,2.44
2022-09-15T00:11:25.835Z,2.39
2022-09-15T00:16:31.980Z,2.41
2022-09-15T00:21:38.699Z,2.37
2022-09-15T00:26:44.825Z,2.46
2022-09-15T00:31:51.154Z,2.26
2022-09-15T00:36:57.316Z,2.38
2022-09-15T00:42:03.613Z,2.28
2022-09-15T00:47:19.346Z,2.33
2022-09-15T00:52:16.090Z,2.21
2022-09-15T00:57:22.185Z,2.26
2022-09-15T01:02:28.739Z,2.57
2022-09-15T01:07:34.784Z,2.22
2022-09-15T01:12:40.997Z,2.13
2022-09-15T01:17:47.180Z,2.36
2022-09-15T01:22:54.173Z,2.31
2022-09-15T01:28:00.242Z,2.55
2022-09-15T01:33:06.447Z,2.69
2022-09-15T01:38:12.576Z,2.56
2022-09-15T01:43:18.738Z,2.36
2022-09-15T01:48:24.817Z,2.85
2022-09-15T01:53:31.033Z,2.48
2022-09-15T01:58:37.555Z,2.58
2022-09-15T02:03:44.043Z,2.62
2022-09-15T02:08:50.395Z,2.68
2022-09-15T02:13:56.515Z,2.70
2022-09-15T02:19:02.671Z,2.74
2022-09-15T02:24:09.003Z,2.52
2022-09-15T02:29:15.170Z,2.57
2022-09-15T02:34:21.441Z,2.63
2022-09-15T02:39:27.607Z,2.94
2022-09-15T02:44:33.906Z,2.64
2022-09-15T02:49:40.138Z,2.64
2022-09-15T02:54:46.678Z,2.78
2022-09-15T02:59:52.730Z,2.92
2022-09-15T03:04:59.187Z,2.73
2022-09-15T03:10:05.601Z,2.61
2022-09-15T03:15:12.151Z,2.63
2022-09-15T03:20:18.261Z,2.27
2022-09-15T03:25:25.205Z,2.48
2022-09-15T03:30:31.284Z,2.36
2022-09-15T03:35:37.858Z,2.41
2022-09-15T03:40:44.013Z,2.69
2022-09-15T03:45:51.108Z,2.56
2022-09-15T03:50:57.464Z,2.40
2022-09-15T03:56:03.935Z,2.77
2022-09-15T04:01:10.249Z,2.59
2022-09-15T04:06:16.318Z,2.51
2022-09-15T04:11:22.416Z,2.18
2022-09-15T04:16:28.801Z,2.04
2022-09-15T04:21:34.934Z,2.07
2022-09-15T04:26:41.112Z,1.73
2022-09-15T04:31:47.343Z,2.07
2022-09-15T04:36:53.456Z,1.92
2022-09-15T04:41:59.517Z,1.89
2022-09-15T04:47:06.181Z,1.56
2022-09-15T04:52:12.217Z,1.60
2022-09-15T04:57:18.428Z,1.68
2022-09-15T05:02:25.199Z,2.33
2022-09-15T05:07:31.423Z,1.74
2022-09-15T05:12:37.566Z,1.85
2022-09-15T05:17:44.124Z,1.97
2022-09-15T05:22:50.230Z,1.72
2022-09-15T05:27:56.449Z,3.13
2022-09-15T05:33:02.924Z,2.06
2022-09-15T05:38:09.125Z,1.98
2022-09-15T05:43:15.575Z,2.18
2022-09-15T05:48:21.876Z,1.95
2022-09-15T05:53:28.149Z,2.23
2022-09-15T05:58:34.359Z,1.67
2022-09-15T06:03:40.390Z,1.74
2022-09-15T06:08:54.053Z,2.17
2022-09-15T06:13:52.155Z,1.92
2022-09-15T06:18:58.486Z,1.71
2022-09-15T06:24:04.645Z,1.74
2022-09-15T06:29:10.908Z,1.54
2022-09-15T06:34:16.966Z,1.85
2022-09-15T06:39:23.143Z,1.60
2022-09-15T06:44:29.235Z,1.38
2022-09-15T06:49:35.457Z,1.40
2022-09-15T06:54:41.528Z,1.39
2022-09-15T06:59:47.678Z,1.59
2022-09-15T07:04:53.823Z,1.63
2022-09-15T07:10:00.303Z,1.36
2022-09-15T07:15:06.373Z,1.27
2022-09-15T07:20:12.563Z,1.35
2022-09-15T07:25:18.954Z,1.30
2022-09-15T07:30:25.333Z,1.47
2022-09-15T07:35:31.580Z,1.23
2022-09-15T07:40:37.829Z,1.29
2022-09-15T07:45:44.729Z,1.46
2022-09-15T07:50:50.990Z,1.21
2022-09-15T07:55:57.126Z,1.41
2022-09-15T08:01:03.379Z,1.47
2022-09-15T08:06:09.412Z,1.48
2022-09-15T08:11:18.645Z,1.35
2022-09-15T08:16:21.634Z,0.98
2022-09-15T08:21:27.841Z,1.45
2022-09-15T08:26:33.931Z,1.18
2022-09-15T08:31:40.154Z,1.17
2022-09-15T08:36:46.202Z,1.19
2022-09-15T08:41:52.471Z,1.73
2022-09-15T08:46:58.600Z,1.67
2022-09-15T08:52:04.896Z,1.37
2022-09-15T08:57:11.131Z,1.36
2022-09-15T09:02:17.507Z,1.61
2022-09-15T09:07:23.696Z,1.77
2022-09-15T09:12:29.971Z,1.50
2022-09-15T09:17:36.060Z,1.42
2022-09-15T09:22:42.251Z,1.23
2022-09-15T09:27:48.320Z,1.27
2022-09-15T09:32:54.536Z,1.28
2022-09-15T09:38:00.955Z,0.91
2022-09-15T09:43:07.101Z,1.05
2022-09-15T09:48:13.200Z,1.48
2022-09-15T09:53:19.349Z,1.25
2022-09-15T09:58:25.427Z,1.19
2022-09-15T10:03:33.086Z,1.23
2022-09-15T10:08:37.281Z,1.35
2022-09-15T10:13:43.737Z,1.31
2022-09-15T10:18:53.590Z,1.17
2022-09-15T10:23:55.639Z,1.42
2022-09-15T10:29:01.832Z,1.18
2022-09-15T10:34:07.984Z,1.11
2022-09-15T10:39:14.066Z,1.27
2022-09-15T10:44:20.282Z,1.30
2022-09-15T10:49:26.366Z,1.08
2022-09-15T10:54:32.502Z,1.14
2022-09-15T10:59:38.598Z,1.01
2022-09-15T11:04:44.897Z,1.19
2022-09-15T11:09:51.321Z,1.19
2022-09-15T11:14:57.592Z,1.17
2022-09-15T11:20:03.634Z,1.25
2022-09-15T11:25:09.788Z,0.89
2022-09-15T11:30:15.897Z,1.11
2022-09-15T11:35:22.028Z,0.81
2022-09-15T11:40:28.168Z,1.03
2022-09-15T11:45:34.852Z,0.99
2022-09-15T11:50:40.936Z,0.86
2022-09-15T11:55:47.213Z,0.87
2022-09-15T12:00:53.680Z,1.06
2022-09-15T12:06:00.018Z,0.94
2022-09-15T12:11:06.125Z,1.17
2022-09-15T12:16:13.198Z,1.22
2022-09-15T12:21:19.217Z,0.97
2022-09-15T12:26:25.415Z,1.35
2022-09-15T12:31:32.515Z,0.99
2022-09-15T12:36:38.663Z,1.23
2022-09-15T12:41:44.786Z,1.25
2022-09-15T12:46:51.377Z,1.28
2022-09-15T12:51:57.389Z,1.30
2022-09-15T12:57:03.639Z,1.50
2022-09-15T13:02:09.887Z,1.34
2022-09-15T13:07:15.929Z,1.33
2022-09-15T13:12:22.064Z,1.53
2022-09-15T13:17:28.446Z,1.34
2022-09-15T13:22:34.694Z,1.47
2022-09-15T13:27:40.962Z,1.71
2022-09-15T13:32:47.430Z,1.54
2022-09-15T13:38:20.191Z,1.45
2022-09-15T13:42:59.562Z,1.67
2022-09-15T13:48:05.892Z,1.40
2022-09-15T13:53:12.089Z,1.34
2022-09-15T14:03:24.019Z,1.17
2022-09-15T14:08:30.227Z,1.23
2022-09-15T14:13:36.734Z,1.37
2022-09-15T14:18:42.896Z,1.27
2022-09-15T14:23:48.936Z,1.61
2022-09-15T14:28:55.158Z,1.17
2022-09-15T14:34:01.483Z,1.61
2022-09-15T14:39:38.427Z,1.44
2022-09-15T14:49:50.354Z,1.21
2022-09-15T14:54:56.412Z,1.35
2022-09-15T15:00:02.567Z,1.38
2022-09-15T15:05:08.662Z,1.27
2022-09-15T15:10:15.286Z,1.45
2022-09-15T15:15:21.403Z,1.66
2022-09-15T15:20:27.632Z,1.74
2022-09-15T15:25:33.811Z,1.50
2022-09-15T15:30:39.946Z,1.48
2022-09-15T15:35:46.072Z,1.26
2022-09-15T15:40:52.348Z,1.38
2022-09-15T15:45:58.660Z,1.06
2022-09-15T15:51:04.641Z,1.19
2022-09-15T15:56:10.701Z,1.25
2022-09-15T16:01:17.161Z,1.22
2022-09-15T16:06:23.848Z,1.36
2022-09-15T16:11:30.307Z,1.16
2022-09-15T16:16:36.548Z,1.03
2022-09-15T16:21:42.805Z,0.95
2022-09-15T16:26:53.607Z,1.11
2022-09-15T16:31:54.980Z,1.40
2022-09-15T16:37:01.062Z,1.53
2022-09-15T16:42:07.300Z,1.15
2022-09-15T16:47:13.361Z,1.34
2022-09-15T16:52:19.553Z,1.30
2022-09-15T16:57:25.635Z,1.30
2022-09-15T17:02:32.252Z,1.24
2022-09-15T17:07:38.433Z,1.27
2022-09-15T17:12:45.093Z,1.55
2022-09-15T17:17:51.502Z,1.29
2022-09-15T17:22:57.731Z,1.20
2022-09-15T17:28:04.188Z,1.48
2022-09-15T17:33:10.389Z,1.27
2022-09-15T17:38:16.450Z,1.37
2022-09-15T17:43:22.591Z,1.59
2022-09-15T17:48:28.714Z,3.74
2022-09-15T17:53:34.943Z,2.45
2022-09-15T17:58:41.008Z,1.72
2022-09-15T18:03:50.814Z,1.60
2022-09-15T18:08:56.897Z,1.49
2022-09-15T18:14:03.278Z,1.42
2022-09-15T18:19:09.480Z,1.68
2022-09-15T18:24:15.684Z,1.59
2022-09-15T18:29:21.790Z,1.40
2022-09-15T18:34:28.066Z,1.36
2022-09-15T18:39:34.541Z,1.49
2022-09-15T18:44:40.729Z,1.48
2022-09-15T18:49:46.835Z,1.34
2022-09-15T18:54:53.017Z,1.55
2022-09-15T18:59:59.151Z,1.37
2022-09-15T19:05:05.450Z,1.47
2022-09-15T19:10:11.551Z,1.80
2022-09-15T19:15:18.023Z,1.57
2022-09-15T19:20:24.651Z,1.47
2022-09-15T19:25:33.343Z,1.56
2022-09-15T19:30:49.134Z,1.64
2022-09-15T19:35:45.327Z,1.63
2022-09-15T19:41:06.753Z,1.49
2022-09-15T19:46:07.072Z,1.58
2022-09-15T19:51:03.164Z,1.65
2022-09-15T19:56:09.322Z,1.73
2022-09-15T20:01:15.847Z,1.46
2022-09-15T20:06:22.125Z,1.35
2022-09-15T20:11:28.286Z,1.54
2022-09-15T20:16:34.546Z,1.35
2022-09-15T20:21:51.163Z,1.47
2022-09-15T20:26:46.527Z,1.46
2022-09-15T20:31:52.677Z,1.86
2022-09-15T20:36:59.363Z,1.41
2022-09-15T20:42:05.452Z,1.54
2022-09-15T20:47:11.735Z,1.28
2022-09-15T20:52:17.795Z,1.45
2022-09-15T20:57:23.965Z,1.13
2022-09-15T21:02:30.068Z,1.57
2022-09-15T21:07:36.292Z,1.44
2022-09-15T21:12:42.751Z,1.45
2022-09-15T21:17:48.977Z,1.47
2022-09-15T21:22:55.385Z,1.48
2022-09-15T21:28:01.655Z,1.35
2022-09-15T21:33:07.726Z,1.30
2022-09-15T21:38:14.029Z,1.44
2022-09-15T21:43:20.148Z,1.30
2022-09-15T21:48:26.344Z,1.28
2022-09-15T21:53:32.402Z,1.38
2022-09-15T21:58:42.653Z,1.30
2022-09-15T22:03:44.473Z,1.37
2022-09-15T22:08:50.852Z,1.55
2022-09-15T22:13:56.971Z,1.47
2022-09-15T22:19:03.302Z,1.36
2022-09-15T22:24:09.431Z,1.53
2022-09-15T22:29:15.765Z,1.31
2022-09-15T22:34:21.850Z,1.43
2022-09-15T22:39:50.263Z,1.36
2022-09-15T22:44:33.840Z,1.35
2022-09-15T22:49:40.186Z,1.60
2022-09-15T22:54:47.148Z,1.53
2022-09-15T22:59:53.519Z,1.45
2022-09-15T23:04:59.596Z,1.33
2022-09-15T23:10:07.809Z,1.64
2022-09-15T23:15:13.899Z,1.51
2022-09-15T23:20:22.934Z,1.55
2022-09-15T23:25:29.205Z,1.33
2022-09-15T23:30:35.430Z,1.54
2022-09-15T23:35:41.527Z,1.55
2022-09-15T23:40:47.806Z,1.45
2022-09-15T23:45:54.210Z,1.48
2022-09-15T23:51:00.393Z,1.49
2022-09-15T23:56:06.467Z,1.63
